createdAt,value
2023-02-05T00:00:40.597Z,4.60
2023-02-05T00:03:07.706Z,4.60
2023-02-05T00:05:34.811Z,4.60
2023-02-05T00:08:02.420Z,4.60
2023-02-05T00:10:29.418Z,4.60
2023-02-05T00:12:56.283Z,4.60
2023-02-05T00:15:23.119Z,4.60
2023-02-05T00:17:50.033Z,4.60
2023-02-05T00:20:17.020Z,4.60
2023-02-05T00:22:43.904Z,4.70
2023-02-05T00:25:10.803Z,4.70
2023-02-05T00:27:37.649Z,4.60
2023-02-05T00:30:04.791Z,4.60
2023-02-05T00:32:31.679Z,4.60
2023-02-05T00:34:58.480Z,4.60
2023-02-05T00:37:25.369Z,4.60
2023-02-05T00:39:52.192Z,4.60
2023-02-05T00:42:19.152Z,4.60
2023-02-05T00:44:46.019Z,4.60
2023-02-05T00:47:12.901Z,4.60
2023-02-05T00:49:39.768Z,4.50
2023-02-05T00:52:06.701Z,4.40
2023-02-05T00:54:33.526Z,4.40
2023-02-05T00:57:00.473Z,4.40
2023-02-05T00:59:27.363Z,4.40
2023-02-05T01:01:54.228Z,4.50
2023-02-05T01:04:21.166Z,4.50
2023-02-05T01:06:48.013Z,4.50
2023-02-05T01:09:14.874Z,4.50
2023-02-05T01:11:41.782Z,4.50
2023-02-05T01:14:08.707Z,4.50
2023-02-05T01:16:35.649Z,4.50
2023-02-05T01:19:02.499Z,4.50
2023-02-05T01:21:29.869Z,4.60
2023-02-05T01:23:57.986Z,4.60
2023-02-05T01:26:24.936Z,4.60
2023-02-05T01:28:51.859Z,4.60
2023-02-05T01:31:20.774Z,4.60
2023-02-05T01:33:47.732Z,4.60
2023-02-05T01:36:14.615Z,4.60
2023-02-05T01:38:41.433Z,4.60
2023-02-05T01:41:09.369Z,4.60
2023-02-05T01:43:36.241Z,4.60
2023-02-05T01:46:26.449Z,4.60
2023-02-05T01:48:56.009Z,4.50
2023-02-05T01:51:23.703Z,4.50
2023-02-05T01:53:50.779Z,4.60
2023-02-05T01:56:21.385Z,4.60
2023-02-05T01:58:51.214Z,4.50
2023-02-05T02:01:18.072Z,4.50
2023-02-05T02:03:45.393Z,4.40
2023-02-05T02:06:12.315Z,4.40
2023-02-05T02:08:39.169Z,4.30
2023-02-05T02:11:07.300Z,4.20
2023-02-05T02:13:36.589Z,4.20
2023-02-05T02:16:04.786Z,4.10
2023-02-05T02:18:33.337Z,4.10
2023-02-05T02:21:19.406Z,4.00
2023-02-05T02:24:05.021Z,3.90
2023-02-05T02:26:44.497Z,3.90
2023-02-05T02:29:18.500Z,3.80
2023-02-05T02:31:54.182Z,3.80
2023-02-05T02:34:24.974Z,3.70
2023-02-05T02:37:09.196Z,3.70
2023-02-05T02:39:48.384Z,3.70
2023-02-05T02:42:16.739Z,3.60
2023-02-05T02:44:47.608Z,3.60
2023-02-05T02:47:17.843Z,3.50
2023-02-05T02:49:47.675Z,3.50
2023-02-05T02:52:17.033Z,3.40
2023-02-05T02:54:46.852Z,3.40
2023-02-05T02:57:15.267Z,3.30
2023-02-05T02:59:43.043Z,3.30
2023-02-05T03:02:13.678Z,3.30
2023-02-05T03:04:41.829Z,3.40
2023-02-05T03:07:17.527Z,3.40
2023-02-05T03:10:07.512Z,3.40
2023-02-05T03:12:34.641Z,3.50
2023-02-05T03:15:01.597Z,3.40
2023-02-05T03:17:29.019Z,3.40
2023-02-05T03:20:16.160Z,3.40
2023-02-05T03:22:43.009Z,3.40
2023-02-05T03:25:10.500Z,3.40
2023-02-05T03:27:37.668Z,3.30
2023-02-05T03:30:05.464Z,3.30
2023-02-05T03:32:39.623Z,3.30
2023-02-05T03:35:06.439Z,3.30
2023-02-05T03:37:36.541Z,3.40
2023-02-05T03:40:06.438Z,3.40
2023-02-05T03:42:36.264Z,3.50
2023-02-05T03:45:21.869Z,3.50
2023-02-05T03:47:54.534Z,3.60
2023-02-05T03:50:24.700Z,3.60
2023-02-05T03:52:55.236Z,3.60
2023-02-05T03:55:29.451Z,3.60
2023-02-05T03:58:04.715Z,3.60
2023-02-05T04:00:32.459Z,3.60
2023-02-05T04:02:59.288Z,3.60
2023-02-05T04:05:26.169Z,3.50
2023-02-05T04:07:53.153Z,3.40
2023-02-05T04:10:20.054Z,3.30
2023-02-05T04:12:46.903Z,3.20
2023-02-05T04:15:13.792Z,3.20
2023-02-05T04:17:40.731Z,3.10
2023-02-05T04:20:07.960Z,3.00
2023-02-05T04:22:34.880Z,3.00
2023-02-05T04:25:01.777Z,2.90
2023-02-05T04:27:28.708Z,2.90
2023-02-05T04:29:55.612Z,2.90
2023-02-05T04:32:22.427Z,2.80
2023-02-05T04:34:49.316Z,2.80
2023-02-05T04:37:16.217Z,2.70
2023-02-05T04:39:43.014Z,2.70
2023-02-05T04:42:09.882Z,2.60
2023-02-05T04:44:36.769Z,2.60
2023-02-05T04:47:03.691Z,2.60
2023-02-05T04:49:32.013Z,2.60
2023-02-05T04:51:58.907Z,2.50
2023-02-05T04:54:25.783Z,2.50
2023-02-05T04:56:52.666Z,2.50
2023-02-05T04:59:19.810Z,2.50
2023-02-05T05:01:46.674Z,2.50
2023-02-05T05:04:13.624Z,2.40
2023-02-05T05:06:40.448Z,2.40
2023-02-05T05:09:07.394Z,2.30
2023-02-05T05:11:34.208Z,2.30
2023-02-05T05:14:01.106Z,2.30
2023-02-05T05:16:28.059Z,2.20
2023-02-05T05:18:54.965Z,2.20
2023-02-05T05:21:21.881Z,2.10
2023-02-05T05:23:48.778Z,2.10
2023-02-05T05:26:15.678Z,2.00
2023-02-05T05:28:42.620Z,2.00
2023-02-05T05:31:10.557Z,2.00
2023-02-05T05:33:38.086Z,2.00
2023-02-05T05:36:05.742Z,1.90
2023-02-05T05:38:32.853Z,1.90
2023-02-05T05:41:18.481Z,1.90
2023-02-05T05:43:48.120Z,1.90
2023-02-05T05:46:23.054Z,1.90
2023-02-05T05:48:51.025Z,1.90
2023-02-05T05:51:18.466Z,1.90
2023-02-05T05:53:45.479Z,1.90
2023-02-05T05:56:12.740Z,1.80
2023-02-05T05:58:39.612Z,1.80
2023-02-05T06:01:07.357Z,1.80
2023-02-05T06:03:34.261Z,1.70
2023-02-05T06:06:03.100Z,1.70
2023-02-05T06:08:30.372Z,1.60
2023-02-05T06:10:57.477Z,1.60
2023-02-05T06:13:24.940Z,1.60
2023-02-05T06:15:52.192Z,1.60
2023-02-05T06:18:19.129Z,1.60
2023-02-05T06:20:46.019Z,1.60
2023-02-05T06:23:12.906Z,1.60
2023-02-05T06:25:39.942Z,1.60
2023-02-05T06:28:08.021Z,1.60
2023-02-05T06:30:34.935Z,1.60
2023-02-05T06:33:01.749Z,1.60
2023-02-05T06:35:28.612Z,1.70
2023-02-05T06:37:57.640Z,1.70
2023-02-05T06:40:26.101Z,1.80
2023-02-05T06:42:53.661Z,1.80
2023-02-05T06:45:20.580Z,1.80
2023-02-05T06:47:47.679Z,1.80
2023-02-05T06:50:14.678Z,1.80
2023-02-05T06:52:41.687Z,1.70
2023-02-05T06:55:08.770Z,1.70
2023-02-05T06:57:35.672Z,1.80
2023-02-05T07:00:02.586Z,1.80
2023-02-05T07:02:29.502Z,1.70
2023-02-05T07:04:56.362Z,1.70
2023-02-05T07:07:23.317Z,1.80
2023-02-05T07:09:50.421Z,1.80
2023-02-05T07:12:17.258Z,1.90
2023-02-05T07:14:44.387Z,1.90
2023-02-05T07:17:11.361Z,1.80
2023-02-05T07:19:38.277Z,1.80
2023-02-05T07:22:05.376Z,1.80
2023-02-05T07:24:32.374Z,1.80
2023-02-05T07:26:59.255Z,1.80
2023-02-05T07:29:26.295Z,1.80
2023-02-05T07:31:53.243Z,1.80
2023-02-05T07:34:21.033Z,1.90
2023-02-05T07:36:51.381Z,1.90
2023-02-05T07:39:18.952Z,2.00
2023-02-05T07:41:45.917Z,2.10
2023-02-05T07:44:13.360Z,2.10
2023-02-05T07:46:40.325Z,2.10
2023-02-05T07:49:07.451Z,2.20
2023-02-05T07:51:35.320Z,2.30
2023-02-05T07:54:06.508Z,2.30
2023-02-05T07:56:33.372Z,2.30
2023-02-05T07:59:00.352Z,2.40
2023-02-05T08:01:27.220Z,2.50
2023-02-05T08:03:55.726Z,2.50
2023-02-05T08:06:22.748Z,2.60
2023-02-05T08:08:49.845Z,2.70
2023-02-05T08:11:17.206Z,2.70
2023-02-05T08:13:44.775Z,2.80
2023-02-05T08:16:11.931Z,2.90
2023-02-05T08:18:38.883Z,3.00
2023-02-05T08:21:05.938Z,3.00
2023-02-05T08:23:32.926Z,3.10
2023-02-05T08:26:00.061Z,3.20
2023-02-05T08:28:28.217Z,3.20
2023-02-05T08:30:56.797Z,3.30
2023-02-05T08:33:24.224Z,3.30
2023-02-05T08:35:51.382Z,3.40
2023-02-05T08:38:18.994Z,3.40
2023-02-05T08:40:45.930Z,3.50
2023-02-05T08:43:12.919Z,3.60
2023-02-05T08:45:40.343Z,3.70
2023-02-05T08:48:07.349Z,3.90
2023-02-05T08:50:34.224Z,4.20
2023-02-05T08:53:01.234Z,4.40
2023-02-05T08:55:28.212Z,4.70
2023-02-05T08:57:55.702Z,5.00
2023-02-05T09:00:22.666Z,5.30
2023-02-05T09:02:50.088Z,5.50
2023-02-05T09:05:17.342Z,6.00
2023-02-05T09:07:44.272Z,6.60
2023-02-05T09:10:12.199Z,7.20
2023-02-05T09:12:39.565Z,7.80
2023-02-05T09:15:07.038Z,8.50
2023-02-05T09:17:33.868Z,9.20
2023-02-05T09:20:01.094Z,9.90
2023-02-05T09:22:28.105Z,10.40
2023-02-05T09:24:55.035Z,11.00
2023-02-05T09:27:28.765Z,11.40
2023-02-05T09:30:02.486Z,11.90
2023-02-05T09:32:29.313Z,12.40
2023-02-05T09:35:02.455Z,12.90
2023-02-05T09:37:29.358Z,13.20
2023-02-05T09:42:48.978Z,13.70
2023-02-05T09:45:36.232Z,13.70
2023-02-05T09:48:17.770Z,13.90
2023-02-05T09:50:44.839Z,13.90
2023-02-05T09:53:13.478Z,13.90
2023-02-05T09:55:42.590Z,13.90
2023-02-05T09:58:15.103Z,14.00
2023-02-05T10:00:49.656Z,14.00
2023-02-05T10:03:42.423Z,14.00
2023-02-05T10:06:12.171Z,13.90
2023-02-05T10:08:48.253Z,13.80
2023-02-05T10:11:31.534Z,13.70
2023-02-05T10:14:21.159Z,13.50
2023-02-05T10:16:54.080Z,13.50
2023-02-05T10:19:53.341Z,13.40
2023-02-05T10:22:20.242Z,13.30
2023-02-05T10:25:05.836Z,13.00
2023-02-05T10:27:32.721Z,12.70
2023-02-05T10:30:15.178Z,12.40
2023-02-05T10:32:42.040Z,12.30
2023-02-05T10:35:19.010Z,12.20
2023-02-05T10:37:50.843Z,12.10
2023-02-05T10:40:20.187Z,12.00
2023-02-05T10:42:51.787Z,11.90
2023-02-05T10:45:21.749Z,11.80
2023-02-05T10:47:48.639Z,11.80
2023-02-05T10:50:34.428Z,11.70
2023-02-05T10:53:01.656Z,11.70
2023-02-05T10:55:28.886Z,11.60
2023-02-05T10:57:55.785Z,11.50
2023-02-05T11:00:23.269Z,11.40
2023-02-05T11:02:51.682Z,11.40
2023-02-05T11:05:34.706Z,11.30
2023-02-05T11:08:01.696Z,11.20
2023-02-05T11:10:29.637Z,11.20
2023-02-05T11:13:16.400Z,11.20
2023-02-05T11:15:56.963Z,11.20
2023-02-05T11:18:25.257Z,11.10
2023-02-05T11:20:59.828Z,11.10
2023-02-05T11:23:29.645Z,11.00
2023-02-05T11:26:00.809Z,11.00
2023-02-05T11:28:36.053Z,10.90
2023-02-05T11:31:19.693Z,10.60
2023-02-05T11:33:47.075Z,10.40
2023-02-05T11:36:16.626Z,10.20
2023-02-05T11:38:57.311Z,10.20
2023-02-05T11:41:27.247Z,10.10
2023-02-05T11:43:54.932Z,10.00
2023-02-05T11:46:23.082Z,10.00
2023-02-05T11:48:58.057Z,9.90
2023-02-05T11:51:40.493Z,9.90
2023-02-05T11:54:16.526Z,10.00
2023-02-05T11:56:43.323Z,10.00
2023-02-05T11:59:22.044Z,10.10
2023-02-05T12:01:49.000Z,10.00
2023-02-05T12:04:18.212Z,9.90
2023-02-05T12:06:52.204Z,9.90
2023-02-05T12:09:27.617Z,9.80
2023-02-05T12:12:18.843Z,9.70
2023-02-05T12:14:51.593Z,9.60
2023-02-05T12:17:34.142Z,9.50
2023-02-05T12:20:01.054Z,9.30
2023-02-05T12:22:37.103Z,9.10
2023-02-05T12:25:22.984Z,8.90
2023-02-05T12:27:57.589Z,8.80
2023-02-05T12:30:39.898Z,8.60
2023-02-05T12:33:21.942Z,8.50
2023-02-05T12:36:07.660Z,8.40
2023-02-05T12:38:48.371Z,8.40
2023-02-05T12:41:24.318Z,8.40
2023-02-05T12:43:54.753Z,8.50
2023-02-05T12:46:36.204Z,8.50
2023-02-05T12:49:13.631Z,8.50
2023-02-05T12:51:46.353Z,8.50
2023-02-05T12:54:27.692Z,8.40
2023-02-05T12:57:04.069Z,8.40
2023-02-05T12:59:30.897Z,8.40
2023-02-05T13:02:15.810Z,8.40
2023-02-05T13:04:54.716Z,8.50
2023-02-05T13:07:26.929Z,8.50
2023-02-05T13:09:56.655Z,8.50
2023-02-05T13:12:26.741Z,8.50
2023-02-05T13:15:08.973Z,8.50
2023-02-05T13:17:38.430Z,8.40
2023-02-05T13:20:07.576Z,8.40
2023-02-05T13:22:57.763Z,8.40
2023-02-05T13:25:38.595Z,8.30
2023-02-05T13:28:35.900Z,8.30
2023-02-05T13:31:04.700Z,8.30
2023-02-05T13:33:31.794Z,8.20
2023-02-05T13:36:17.605Z,8.20
2023-02-05T13:38:56.600Z,8.20
2023-02-05T13:41:43.216Z,8.20
2023-02-05T13:44:13.072Z,8.20
2023-02-05T13:46:52.134Z,8.20
2023-02-05T13:49:37.716Z,8.20
2023-02-05T13:52:04.600Z,8.10
2023-02-05T13:54:49.889Z,8.10
2023-02-05T13:57:19.903Z,8.10
2023-02-05T13:59:51.684Z,8.20
2023-02-05T14:02:27.481Z,8.20
2023-02-05T14:04:54.988Z,8.20
2023-02-05T14:07:26.456Z,8.10
2023-02-05T14:09:56.663Z,8.10
2023-02-05T14:12:25.683Z,8.00
2023-02-05T14:15:11.296Z,8.00
2023-02-05T14:17:38.149Z,7.90
2023-02-05T14:20:24.982Z,7.90
2023-02-05T14:22:51.847Z,7.80
2023-02-05T14:25:38.348Z,7.80
2023-02-05T14:28:17.619Z,7.70
2023-02-05T14:30:57.552Z,7.70
2023-02-05T14:33:27.708Z,7.60
2023-02-05T14:36:17.980Z,7.60
2023-02-05T14:39:06.122Z,7.50
2023-02-05T14:41:39.155Z,7.40
2023-02-05T14:44:16.498Z,7.40
2023-02-05T14:46:44.670Z,7.40
2023-02-05T14:49:22.554Z,7.30
2023-02-05T14:51:52.400Z,7.30
2023-02-05T14:54:24.050Z,7.20
2023-02-05T14:56:52.593Z,7.20
2023-02-05T14:59:22.576Z,7.10
2023-02-05T15:01:50.884Z,7.10
2023-02-05T15:04:23.159Z,7.10
2023-02-05T15:06:50.320Z,7.00
2023-02-05T15:09:21.021Z,7.00
2023-02-05T15:12:10.991Z,6.90
2023-02-05T15:14:50.624Z,6.80
2023-02-05T15:17:17.814Z,6.80
2023-02-05T15:19:52.995Z,6.70
2023-02-05T15:22:25.792Z,6.70
2023-02-05T15:24:54.099Z,6.60
2023-02-05T15:27:23.431Z,6.60
2023-02-05T15:29:57.269Z,6.50
2023-02-05T15:32:24.340Z,6.50
2023-02-05T15:34:55.914Z,6.40
2023-02-05T15:37:28.476Z,6.40
2023-02-05T15:39:56.642Z,6.40
2023-02-05T15:42:28.721Z,6.30
2023-02-05T15:44:55.721Z,6.30
2023-02-05T15:47:24.003Z,6.20
2023-02-05T15:49:56.984Z,6.00
2023-02-05T15:52:23.893Z,5.90
2023-02-05T15:54:51.868Z,5.80
2023-02-05T15:57:23.383Z,5.70
2023-02-05T15:59:51.972Z,5.60
2023-02-05T16:02:23.390Z,5.60
2023-02-05T16:05:01.589Z,5.50
2023-02-05T16:07:36.336Z,5.50
2023-02-05T16:10:14.956Z,5.40
2023-02-05T16:12:56.906Z,5.40
2023-02-05T16:15:24.322Z,5.40
2023-02-05T16:17:51.812Z,5.30
2023-02-05T16:20:26.808Z,5.30
2023-02-05T16:23:05.290Z,5.30
2023-02-05T16:25:35.462Z,5.20
2023-02-05T16:28:05.210Z,5.10
2023-02-05T16:30:40.706Z,5.10
2023-02-05T16:33:08.568Z,5.00
2023-02-05T16:35:37.751Z,4.90
2023-02-05T16:38:09.225Z,4.90
2023-02-05T16:40:40.855Z,4.90
2023-02-05T16:43:20.596Z,4.80
2023-02-05T16:46:06.350Z,4.70
2023-02-05T16:48:34.802Z,4.70
2023-02-05T16:51:01.733Z,4.60
2023-02-05T16:53:32.802Z,4.60
2023-02-05T16:56:03.089Z,4.60
2023-02-05T16:58:36.122Z,4.60
2023-02-05T17:01:04.259Z,4.50
2023-02-05T17:03:35.179Z,4.50
2023-02-05T17:06:03.245Z,4.50
2023-02-05T17:08:32.475Z,4.50
2023-02-05T17:11:01.098Z,4.50
2023-02-05T17:13:41.930Z,4.50
2023-02-05T17:16:28.572Z,4.40
2023-02-05T17:18:55.445Z,4.40
2023-02-05T17:21:24.163Z,4.40
2023-02-05T17:23:51.930Z,4.30
2023-02-05T17:26:19.291Z,4.30
2023-02-05T17:28:50.201Z,4.30
2023-02-05T17:31:17.974Z,4.20
2023-02-05T17:33:49.722Z,4.20
2023-02-05T17:36:17.679Z,4.20
2023-02-05T17:38:45.354Z,4.10
2023-02-05T17:41:35.202Z,4.10
2023-02-05T17:44:02.111Z,4.00
2023-02-05T17:46:28.992Z,4.10
2023-02-05T17:48:55.945Z,4.10
2023-02-05T17:51:26.675Z,4.10
2023-02-05T17:53:53.602Z,4.20
2023-02-05T17:56:21.492Z,4.20
2023-02-05T17:58:49.160Z,4.20
2023-02-05T18:01:16.241Z,4.20
2023-02-05T18:03:43.155Z,4.10
2023-02-05T18:06:12.172Z,4.10
2023-02-05T18:08:39.072Z,4.10
2023-02-05T18:11:05.932Z,4.10
2023-02-05T18:13:32.798Z,4.10
2023-02-05T18:16:03.537Z,4.10
2023-02-05T18:18:31.507Z,4.00
2023-02-05T18:20:58.529Z,3.90
2023-02-05T18:23:29.202Z,3.90
2023-02-05T18:25:57.158Z,3.90
2023-02-05T18:28:24.095Z,3.90
2023-02-05T18:30:58.051Z,3.80
2023-02-05T18:33:25.050Z,3.80
2023-02-05T18:35:52.011Z,3.70
2023-02-05T18:38:18.961Z,3.70
2023-02-05T18:40:45.773Z,3.60
2023-02-05T18:43:13.464Z,3.60
2023-02-05T18:45:40.334Z,3.60
2023-02-05T18:48:07.226Z,3.60
2023-02-05T18:50:34.441Z,3.60
2023-02-05T18:53:01.487Z,3.70
2023-02-05T18:55:29.359Z,3.70
2023-02-05T18:57:56.275Z,3.60
2023-02-05T19:00:23.176Z,3.50
2023-02-05T19:02:50.042Z,3.40
2023-02-05T19:05:17.014Z,3.40
2023-02-05T19:07:46.075Z,3.30
2023-02-05T19:10:12.973Z,3.30
2023-02-05T19:12:39.860Z,3.20
2023-02-05T19:15:07.170Z,3.20
2023-02-05T19:17:34.005Z,3.20
2023-02-05T19:20:00.917Z,3.20
2023-02-05T19:22:27.797Z,3.10
2023-02-05T19:24:54.654Z,3.10
2023-02-05T19:27:21.623Z,3.10
2023-02-05T19:29:48.546Z,3.10
2023-02-05T19:32:15.411Z,3.10
2023-02-05T19:34:43.428Z,3.10
2023-02-05T19:37:12.266Z,3.10
2023-02-05T19:39:41.823Z,3.10
2023-02-05T19:42:16.647Z,3.10
2023-02-05T19:44:44.324Z,3.20
2023-02-05T19:47:12.984Z,3.20
2023-02-05T19:49:39.871Z,3.30
2023-02-05T19:52:08.565Z,3.40
2023-02-05T19:54:35.874Z,3.40
2023-02-05T19:57:02.873Z,3.30
2023-02-05T19:59:29.819Z,3.30
2023-02-05T20:01:56.863Z,3.20
2023-02-05T20:04:25.021Z,3.20
2023-02-05T20:06:56.059Z,3.10
2023-02-05T20:09:23.051Z,3.00
2023-02-05T20:11:52.643Z,3.00
2023-02-05T20:14:19.596Z,2.90
2023-02-05T20:16:47.056Z,2.80
2023-02-05T20:19:14.877Z,2.80
2023-02-05T20:21:42.066Z,2.70
2023-02-05T20:24:09.528Z,2.70
2023-02-05T20:26:37.440Z,2.60
2023-02-05T20:29:22.820Z,2.70
2023-02-05T20:31:51.282Z,2.70
2023-02-05T20:34:30.673Z,2.70
2023-02-05T20:36:59.579Z,2.70
2023-02-05T20:39:30.152Z,2.70
2023-02-05T20:41:58.145Z,2.80
2023-02-05T20:44:28.974Z,2.80
2023-02-05T20:46:55.895Z,2.80
2023-02-05T20:49:22.859Z,2.80
2023-02-05T20:51:49.790Z,2.80
2023-02-05T20:54:16.734Z,2.80
2023-02-05T20:56:43.629Z,2.80
2023-02-05T20:59:11.375Z,2.90
2023-02-05T21:01:39.410Z,2.90
2023-02-05T21:04:07.221Z,3.00
2023-02-05T21:06:39.183Z,3.00
2023-02-05T21:09:06.386Z,3.10
2023-02-05T21:11:33.440Z,3.10
2023-02-05T21:14:00.340Z,3.10
2023-02-05T21:16:28.251Z,3.10
2023-02-05T21:18:55.770Z,3.10
2023-02-05T21:21:24.463Z,3.10
2023-02-05T21:23:56.157Z,3.10
2023-02-05T21:26:34.015Z,3.10
2023-02-05T21:29:03.126Z,3.00
2023-02-05T21:31:33.997Z,3.00
2023-02-05T21:34:01.666Z,2.90
2023-02-05T21:36:29.018Z,2.90
2023-02-05T21:38:55.918Z,2.90
2023-02-05T21:41:23.145Z,2.90
2023-02-05T21:43:53.875Z,2.80
2023-02-05T21:46:21.287Z,2.80
2023-02-05T21:48:51.937Z,2.80
2023-02-05T21:51:20.032Z,2.80
2023-02-05T21:53:46.873Z,2.80
2023-02-05T21:56:15.482Z,2.80
2023-02-05T21:58:42.456Z,2.80
2023-02-05T22:01:16.400Z,2.70
2023-02-05T22:03:44.042Z,2.70
2023-02-05T22:06:10.946Z,2.70
2023-02-05T22:08:38.411Z,2.70
2023-02-05T22:11:06.762Z,2.70
2023-02-05T22:13:34.841Z,2.70
2023-02-05T22:16:09.170Z,2.70
2023-02-05T22:18:36.289Z,2.70
2023-02-05T22:21:22.239Z,2.60
2023-02-05T22:23:50.367Z,2.70
2023-02-05T22:26:18.503Z,2.60
2023-02-05T22:28:45.895Z,2.60
2023-02-05T22:31:14.411Z,2.50
2023-02-05T22:33:42.012Z,2.50
2023-02-05T22:36:09.663Z,2.50
2023-02-05T22:38:37.338Z,2.40
2023-02-05T22:41:10.856Z,2.40
2023-02-05T22:43:38.050Z,2.30
2023-02-05T22:46:06.342Z,2.30
2023-02-05T22:48:36.791Z,2.30
2023-02-05T22:51:04.369Z,2.30
2023-02-05T22:53:31.497Z,2.20
2023-02-05T22:56:03.904Z,2.20
2023-02-05T22:58:30.943Z,2.20
2023-02-05T23:00:58.323Z,2.10
2023-02-05T23:03:25.233Z,2.10
2023-02-05T23:05:52.263Z,2.10
2023-02-05T23:08:19.095Z,2.10
2023-02-05T23:10:46.101Z,2.10
2023-02-05T23:13:12.985Z,2.10
2023-02-05T23:15:39.822Z,2.10
2023-02-05T23:18:06.768Z,2.10
2023-02-05T23:20:33.620Z,2.10
2023-02-05T23:23:00.464Z,2.10
2023-02-05T23:25:27.298Z,2.10
2023-02-05T23:27:54.239Z,2.00
2023-02-05T23:30:21.117Z,2.00
2023-02-05T23:32:47.965Z,2.10
2023-02-05T23:35:14.858Z,2.10
2023-02-05T23:37:41.730Z,2.00
2023-02-05T23:40:08.954Z,2.10
2023-02-05T23:42:39.462Z,2.10
2023-02-05T23:45:06.476Z,2.10
2023-02-05T23:47:33.309Z,2.00
2023-02-05T23:50:00.224Z,2.00
2023-02-05T23:52:27.061Z,2.00
2023-02-05T23:54:53.965Z,2.10
2023-02-05T23:57:20.857Z,2.10
2023-02-05T23:59:47.692Z,2.20
